Time;durP1;ratioP1;P1;durP2;ratioP2;P2;SDS_P1;SDS_P2;PMS_P1;PMS_P2;Temp;Humidity;BMP_temperature;BMP_pressure;BME280_temperature;BME280_humidity;BME280_pressure;Samples;Min_cycle;Max_cycle;Signal;HPM_P1;HPM_P2
2021/11/11 00:00:14;;;;;;;;;;;;;;;1.27;55.93;102654.40;117333;1185;21845;-60
2021/11/11 00:02:43;;;;;;;;;;;;;;;1.29;55.74;102653.86;117443;1185;23625;-57
2021/11/11 00:05:11;;;;;;;;;;;;;;;1.31;55.80;102651.01;117387;1184;21851;-59
2021/11/11 00:07:39;;;;;;;;;;;;;;;1.32;55.89;102647.27;117457;1182;23422;-57
2021/11/11 00:10:10;;;;;;;;;;;;;;;1.34;55.87;102647.20;117400;1186;22950;-56
2021/11/11 00:12:38;;;;;;;;;;;;;;;1.35;55.91;102641.38;117446;1182;23430;-60
2021/11/11 00:15:10;;;;;;;;;;;;;;;1.34;56.00;102636.30;117467;1186;23449;-59
2021/11/11 00:17:39;;;;;;;;;;;;;;;1.32;56.03;102634.98;117377;1183;24145;-59
2021/11/11 00:20:08;;;;;;;;;;;;;;;1.34;55.85;102630.92;117404;1183;24152;-57
2021/11/11 00:22:38;;;;;;;;;;;;;;;1.35;55.93;102620.96;117357;1182;23676;-57
2021/11/11 00:25:07;;;;;;;;;;;;;;;1.32;55.88;102614.05;117385;1182;23420;-60
2021/11/11 00:27:35;;;;;;;;;;;;;;;1.39;55.93;102608.89;117350;1183;21854;-59
2021/11/11 00:30:04;;;;;;;;;;;;;;;1.40;55.82;102602.44;117352;1182;23713;-57
2021/11/11 00:32:32;;;;;;;;;;;;;;;1.42;55.74;102601.83;117386;1186;22938;-59
2021/11/11 00:35:00;;;;;;;;;;;;;;;1.43;55.73;102596.40;117449;1186;23436;-60
2021/11/11 00:37:28;;;;;;;;;;;;;;;1.45;55.84;102595.45;117369;1182;23454;-60
2021/11/11 00:40:00;;;;;;;;;;;;;;;1.44;55.80;102592.45;117346;1183;23482;-57
2021/11/11 00:42:29;;;;;;;;;;;;;;;1.47;55.85;102577.42;117450;1185;23420;-59
2021/11/11 00:44:57;;;;;;;;;;;;;;;1.47;55.82;102582.11;117373;1183;23550;-60
2021/11/11 00:47:27;;;;;;;;;;;;;;;1.43;56.09;102589.27;117427;1185;24126;-59
2021/11/11 00:49:54;;;;;;;;;;;;;;;1.41;56.02;102588.80;117338;1185;21841;-60
2021/11/11 00:52:23;;;;;;;;;;;;;;;1.39;56.04;102585.55;117345;1183;23462;-59
2021/11/11 00:54:51;;;;;;;;;;;;;;;1.36;56.20;102583.85;117403;1183;23426;-57
2021/11/11 00:57:19;;;;;;;;;;;;;;;1.35;56.13;102581.69;117420;1183;23445;-57
2021/11/11 00:59:48;;;;;;;;;;;;;;;1.33;56.09;102580.39;117477;1186;21840;-60
2021/11/11 01:02:16;;;;;;;;;;;;;;;1.35;56.15;102575.45;117445;1185;23453;-60
2021/11/11 01:04:44;;;;;;;;;;;;;;;1.35;55.97;102571.48;117383;1185;23452;-60
2021/11/11 01:07:12;;;;;;;;;;;;;;;1.32;56.11;102569.77;117347;1183;21849;-60
2021/11/11 01:09:40;;;;;;;;;;;;;;;1.31;56.05;102569.70;117421;1188;21838;-57
2021/11/11 01:12:09;;;;;;;;;;;;;;;1.30;56.09;102570.55;117447;1186;23555;-57
2021/11/11 01:14:38;;;;;;;;;;;;;;;1.30;56.00;102567.36;117434;1185;23014;-60
2021/11/11 01:17:06;;;;;;;;;;;;;;;1.30;56.07;102563.44;117390;1182;23455;-59
2021/11/11 01:19:35;;;;;;;;;;;;;;;1.29;55.96;102559.76;117396;1182;21977;-59
2021/11/11 01:22:04;;;;;;;;;;;;;;;1.26;55.89;102560.24;117366;1182;21850;-58
2021/11/11 01:24:32;;;;;;;;;;;;;;;1.24;55.92;102559.73;117404;1182;21897;-60
2021/11/11 01:27:00;;;;;;;;;;;;;;;1.21;55.99;102559.42;117431;1182;21841;-58
2021/11/11 01:29:29;;;;;;;;;;;;;;;1.22;55.95;102559.13;117340;1182;22926;-57
2021/11/11 01:31:57;;;;;;;;;;;;;;;1.30;55.59;102550.77;117410;1185;22304;-60
2021/11/11 01:34:27;;;;;;;;;;;;;;;1.29;55.73;102559.05;117454;1185;21839;-57
2021/11/11 01:36:55;;;;;;;;;;;;;;;1.29;55.57;102554.86;117417;1183;23426;-60
2021/11/11 01:39:24;;;;;;;;;;;;;;;1.29;55.82;102551.40;117405;1186;23433;-57
2021/11/11 01:41:52;;;;;;;;;;;;;;;1.29;55.45;102553.13;117440;1181;23416;-59
2021/11/11 01:44:21;;;;;;;;;;;;;;;1.26;55.76;102553.00;117446;1182;23426;-59
2021/11/11 01:46:48;;;;;;;;;;;;;;;1.25;55.63;102544.60;117388;1188;21839;-57
2021/11/11 01:49:17;;;;;;;;;;;;;;;1.25;55.54;102541.30;117468;1185;24146;-57
2021/11/11 01:51:49;;;;;;;;;;;;;;;1.24;55.60;102546.95;117432;1186;21839;-57
2021/11/11 01:54:18;;;;;;;;;;;;;;;1.21;55.56;102546.96;117404;1183;22658;-58
2021/11/11 01:56:47;;;;;;;;;;;;;;;1.18;55.71;102539.88;117454;1186;21854;-58
2021/11/11 01:59:15;;;;;;;;;;;;;;;1.17;55.54;102536.19;117424;1186;21839;-57
2021/11/11 02:01:44;;;;;;;;;;;;;;;1.16;55.74;102539.58;117455;1182;23410;-57
2021/11/11 02:04:12;;;;;;;;;;;;;;;1.11;55.78;102537.37;117418;1186;22104;-58
2021/11/11 02:06:40;;;;;;;;;;;;;;;1.05;55.60;102535.10;117395;1183;24146;-59
2021/11/11 02:09:25;;;;;;;;;;;;;;;1.11;55.72;102532.68;117362;1182;24251;-58
2021/11/11 02:11:54;;;;;;;;;;;;;;;1.13;55.72;102528.52;117393;1185;22094;-57
2021/11/11 02:14:22;;;;;;;;;;;;;;;1.14;55.68;102521.14;117396;1182;22950;-60
2021/11/11 02:16:50;;;;;;;;;;;;;;;1.15;55.68;102523.41;117401;1185;23179;-59
2021/11/11 02:19:21;;;;;;;;;;;;;;;1.17;55.49;102518.20;117369;1185;21901;-57
2021/11/11 02:21:58;;;;;;;;;;;;;;;1.18;55.61;102516.02;117417;1185;21850;-59
2021/11/11 02:24:26;;;;;;;;;;;;;;;1.20;55.86;102517.48;117322;1182;24141;-57
2021/11/11 02:26:54;;;;;;;;;;;;;;;1.22;55.81;102517.10;117459;1185;24762;-59
2021/11/11 02:29:23;;;;;;;;;;;;;;;1.25;55.69;102512.26;117410;1182;21839;-57
2021/11/11 02:31:51;;;;;;;;;;;;;;;1.23;55.65;102504.04;117426;1182;24143;-60
2021/11/11 02:34:20;;;;;;;;;;;;;;;1.23;55.53;102506.27;117470;1182;22908;-57
2021/11/11 02:36:52;;;;;;;;;;;;;;;1.22;55.75;102507.42;117498;1182;21836;-57
2021/11/11 02:39:20;;;;;;;;;;;;;;;1.22;55.78;102506.35;117459;1183;21902;-60
2021/11/11 02:41:48;;;;;;;;;;;;;;;1.21;55.70;102503.00;117408;1185;23484;-57
2021/11/11 02:44:16;;;;;;;;;;;;;;;1.19;55.46;102500.46;117404;1182;23465;-60
2021/11/11 02:46:44;;;;;;;;;;;;;;;1.18;55.63;102491.10;117406;1183;22602;-57
2021/11/11 02:49:12;;;;;;;;;;;;;;;1.18;55.48;102484.02;117366;1182;22915;-59
2021/11/11 02:51:40;;;;;;;;;;;;;;;1.20;55.54;102475.79;117352;1182;22868;-58
2021/11/11 02:54:09;;;;;;;;;;;;;;;1.21;55.64;102469.33;117383;1185;21848;-60
2021/11/11 02:56:37;;;;;;;;;;;;;;;1.22;55.76;102473.89;117455;1185;23423;-57
2021/11/11 02:59:05;;;;;;;;;;;;;;;1.24;55.58;102467.88;117308;1183;23449;-59
2021/11/11 03:01:34;;;;;;;;;;;;;;;1.24;55.65;102461.67;117413;1186;21833;-57
2021/11/11 03:04:03;;;;;;;;;;;;;;;1.21;55.69;102462.17;117394;1186;21835;-58
2021/11/11 03:06:31;;;;;;;;;;;;;;;1.17;55.42;102459.20;117517;1185;23422;-59
2021/11/11 03:09:00;;;;;;;;;;;;;;;1.11;55.61;102456.94;117440;1183;24153;-57
2021/11/11 03:11:48;;;;;;;;;;;;;;;1.18;55.54;102452.70;117375;1184;23636;-59
2021/11/11 03:14:16;;;;;;;;;;;;;;;1.20;55.68;102453.33;117413;1182;21828;-59
2021/11/11 03:16:44;;;;;;;;;;;;;;;1.21;55.47;102450.64;117408;1185;22924;-60
2021/11/11 03:19:13;;;;;;;;;;;;;;;1.22;55.91;102442.37;117364;1183;24133;-60
2021/11/11 03:21:44;;;;;;;;;;;;;;;1.23;55.58;102441.41;117415;1182;23449;-57
2021/11/11 03:24:12;;;;;;;;;;;;;;;1.15;55.52;102441.30;117432;1182;21841;-59
2021/11/11 03:26:41;;;;;;;;;;;;;;;1.13;55.66;102432.70;117462;1185;21842;-59
2021/11/11 03:29:09;;;;;;;;;;;;;;;1.13;55.53;102424.06;117364;1184;23426;-57
2021/11/11 03:31:37;;;;;;;;;;;;;;;1.24;55.86;102423.48;117337;1184;22639;-57
2021/11/11 03:34:06;;;;;;;;;;;;;;;1.26;55.61;102418.39;117370;1189;23443;-59
2021/11/11 03:36:34;;;;;;;;;;;;;;;1.26;55.53;102414.62;117389;1185;23448;-59
2021/11/11 03:39:03;;;;;;;;;;;;;;;1.29;55.73;102414.25;117372;1188;21840;-59
2021/11/11 03:41:32;;;;;;;;;;;;;;;1.30;55.68;102414.17;117358;1185;22902;-59
2021/11/11 03:44:01;;;;;;;;;;;;;;;1.31;55.76;102404.02;117511;1183;22912;-60
2021/11/11 03:46:29;;;;;;;;;;;;;;;1.32;55.61;102401.97;117475;1182;21838;-60
2021/11/11 03:48:57;;;;;;;;;;;;;;;1.35;55.76;102400.07;117377;1182;24143;-57
2021/11/11 03:51:25;;;;;;;;;;;;;;;1.37;55.78;102395.66;117435;1182;23449;-59
2021/11/11 03:53:54;;;;;;;;;;;;;;;1.36;55.72;102400.13;117378;1184;24133;-57
2021/11/11 03:56:22;;;;;;;;;;;;;;;1.37;55.49;102403.08;117438;1182;21984;-59
2021/11/11 03:58:50;;;;;;;;;;;;;;;1.35;55.40;102398.50;117423;1182;22963;-60
2021/11/11 04:01:18;;;;;;;;;;;;;;;1.34;55.42;102405.52;117511;1185;21835;-59
2021/11/11 04:03:47;;;;;;;;;;;;;;;1.34;55.45;102404.13;117371;1182;21844;-57
2021/11/11 04:06:15;;;;;;;;;;;;;;;1.33;55.55;102407.02;117318;1183;24579;-60
2021/11/11 04:08:45;;;;;;;;;;;;;;;1.32;55.40;102409.77;117321;1185;23425;-58
2021/11/11 04:11:14;;;;;;;;;;;;;;;1.32;55.50;102404.77;117392;1185;21844;-57
2021/11/11 04:13:42;;;;;;;;;;;;;;;1.34;55.57;102409.15;117303;1182;21844;-59
2021/11/11 04:16:30;;;;;;;;;;;;;;;1.32;55.63;102409.10;117345;1186;22163;-57
2021/11/11 04:19:00;;;;;;;;;;;;;;;1.34;55.67;102404.48;117358;1185;23434;-57
2021/11/11 04:21:28;;;;;;;;;;;;;;;1.34;55.34;102407.96;117413;1182;22522;-60
2021/11/11 04:23:56;;;;;;;;;;;;;;;1.34;55.39;102400.20;117328;1185;21881;-58
2021/11/11 04:26:27;;;;;;;;;;;;;;;1.37;55.61;102396.70;117391;1185;23446;-57
2021/11/11 04:31:29;;;;;;;;;;;;;;;1.41;55.62;102403.70;117346;1185;23582;-58
2021/11/11 04:34:01;;;;;;;;;;;;;;;1.42;55.47;102399.27;117362;1185;21841;-58
2021/11/11 05:06:01;;;;;;;;;;;;;;;1.53;55.66;102408.19;117265;1184;23423;-60
2021/11/11 05:08:30;;;;;;;;;;;;;;;1.56;55.88;102404.18;118972;1183;23449;-60
2021/11/11 05:10:58;;;;;;;;;;;;;;;1.62;55.91;102403.98;117406;1184;21836;-59
2021/11/11 05:13:26;;;;;;;;;;;;;;;1.67;55.91;102409.30;117392;1183;21899;-60
2021/11/11 05:15:55;;;;;;;;;;;;;;;1.70;55.89;102409.14;117401;1185;21828;-59
2021/11/11 05:18:23;;;;;;;;;;;;;;;1.74;56.04;102410.43;117313;1185;23429;-57
2021/11/11 05:20:51;;;;;;;;;;;;;;;1.81;56.09;102411.47;117393;1185;21841;-57
2021/11/11 05:23:20;;;;;;;;;;;;;;;1.88;56.09;102411.70;117405;1184;23519;-57
2021/11/11 05:25:49;;;;;;;;;;;;;;;1.93;55.99;102411.63;117492;1182;23605;-60
2021/11/11 05:28:17;;;;;;;;;;;;;;;1.97;56.10;102412.04;117303;1185;21842;-57
2021/11/11 05:30:45;;;;;;;;;;;;;;;2.00;55.92;102408.56;117390;1183;21854;-56
2021/11/11 05:33:14;;;;;;;;;;;;;;;2.07;56.04;102409.27;117367;1186;21963;-60
2021/11/11 05:35:42;;;;;;;;;;;;;;;2.17;56.17;102409.66;117435;1183;23503;-60
2021/11/11 05:38:15;;;;;;;;;;;;;;;2.27;56.22;102410.55;117376;1182;22698;-60
2021/11/11 05:40:43;;;;;;;;;;;;;;;2.37;56.27;102405.73;117459;1182;22812;-59
2021/11/11 05:43:11;;;;;;;;;;;;;;;2.47;56.32;102405.55;117345;1186;23886;-60
2021/11/11 05:45:40;;;;;;;;;;;;;;;2.58;56.56;102408.71;117257;1185;22919;-60
2021/11/11 05:48:08;;;;;;;;;;;;;;;2.74;56.71;102408.33;117357;1186;21842;-59
2021/11/11 05:50:36;;;;;;;;;;;;;;;2.86;56.58;102408.11;117342;1185;21839;-60
2021/11/11 05:53:05;;;;;;;;;;;;;;;2.98;56.53;102408.17;117506;1183;21901;-60
2021/11/11 05:55:33;;;;;;;;;;;;;;;3.11;56.76;102408.34;117516;1184;23422;-60
2021/11/11 05:58:02;;;;;;;;;;;;;;;3.37;57.25;102401.66;117484;1182;22629;-60
2021/11/11 06:00:30;;;;;;;;;;;;;;;3.58;57.02;102403.71;117593;1183;23410;-60
2021/11/11 06:02:58;;;;;;;;;;;;;;;3.73;57.03;102402.85;117440;1183;23493;-58
2021/11/11 06:05:27;;;;;;;;;;;;;;;3.91;56.92;102400.77;117437;1185;22628;-60
2021/11/11 06:07:55;;;;;;;;;;;;;;;4.09;57.23;102399.21;117433;1185;23423;-60
2021/11/11 06:10:23;;;;;;;;;;;;;;;4.28;57.21;102400.41;117406;1185;23443;-60
2021/11/11 06:12:51;;;;;;;;;;;;;;;4.46;57.15;102405.74;117450;1182;23445;-60
2021/11/11 06:15:20;;;;;;;;;;;;;;;4.65;57.45;102396.68;117334;1185;24146;-60
2021/11/11 06:17:53;;;;;;;;;;;;;;;4.85;57.60;102404.35;117479;1186;21839;-60
2021/11/11 06:20:32;;;;;;;;;;;;;;;5.04;57.55;102405.86;117505;1184;21839;-60
2021/11/11 06:23:00;;;;;;;;;;;;;;;5.26;57.46;102399.47;117444;1182;22938;-61
2021/11/11 06:25:28;;;;;;;;;;;;;;;5.48;57.55;102405.40;117497;1185;23432;-60
2021/11/11 06:27:56;;;;;;;;;;;;;;;5.70;57.49;102402.27;117561;1183;22623;-61
2021/11/11 06:30:25;;;;;;;;;;;;;;;5.91;57.66;102399.46;117452;1186;23417;-60
2021/11/11 06:32:53;;;;;;;;;;;;;;;6.15;57.59;102399.20;117441;1176;21836;-62
2021/11/11 06:35:29;;;;;;;;;;;;;;;6.37;57.68;102396.71;117510;1183;22911;-59
2021/11/11 06:37:57;;;;;;;;;;;;;;;6.58;57.69;102389.13;117645;1182;22640;-62
2021/11/11 06:40:26;;;;;;;;;;;;;;;6.83;57.87;102388.23;117443;1183;21884;-60
2021/11/11 06:42:59;;;;;;;;;;;;;;;7.03;57.80;102382.30;117450;1185;23413;-60
2021/11/11 06:45:33;;;;;;;;;;;;;;;7.25;58.11;102379.73;117517;1185;22159;-60
2021/11/11 06:48:01;;;;;;;;;;;;;;;7.47;58.03;102380.27;117413;1185;21845;-60
2021/11/11 06:50:30;;;;;;;;;;;;;;;7.68;58.09;102376.41;119600;1183;21803;-60
2021/11/11 06:53:05;;;;;;;;;;;;;;;7.93;57.93;102375.96;117664;1185;21835;-59
2021/11/11 06:55:35;;;;;;;;;;;;;;;8.07;57.93;102379.52;117452;1184;21835;-62
2021/11/11 06:58:03;;;;;;;;;;;;;;;8.21;58.17;102374.67;117376;1184;23445;-62
2021/11/11 07:00:31;;;;;;;;;;;;;;;8.42;58.05;102369.50;117390;1182;21848;-59
2021/11/11 07:03:00;;;;;;;;;;;;;;;8.58;57.98;102369.82;117333;1183;21844;-62
2021/11/11 07:05:28;;;;;;;;;;;;;;;8.73;58.06;102369.35;117434;1185;23449;-60
2021/11/11 07:07:56;;;;;;;;;;;;;;;8.88;57.92;102365.72;117415;1183;21869;-62
2021/11/11 07:10:24;;;;;;;;;;;;;;;9.04;58.03;102365.78;117583;1184;21886;-62
2021/11/11 07:12:55;;;;;;;;;;;;;;;9.19;57.91;102365.46;117543;1185;23524;-63
2021/11/11 07:15:23;;;;;;;;;;;;;;;9.23;57.93;102365.40;117480;1186;21839;-60
2021/11/11 07:17:51;;;;;;;;;;;;;;;9.32;58.04;102365.09;117331;1182;23541;-60
2021/11/11 07:20:19;;;;;;;;;;;;;;;9.43;58.13;102357.47;117483;1183;23567;-62
2021/11/11 07:22:47;;;;;;;;;;;;;;;9.54;58.20;102359.83;117501;1182;23417;-63
2021/11/11 07:25:16;;;;;;;;;;;;;;;9.68;58.23;102358.23;117445;1182;23432;-61
2021/11/11 07:27:45;;;;;;;;;;;;;;;9.82;58.21;102356.61;117492;1186;21847;-63
2021/11/11 07:30:14;;;;;;;;;;;;;;;9.91;58.03;102356.11;117513;1185;21829;-59
2021/11/11 07:32:42;;;;;;;;;;;;;;;10.07;58.07;102355.77;117494;1186;21853;-60
2021/11/11 07:35:11;;;;;;;;;;;;;;;10.22;58.10;102348.36;117336;1183;24133;-59
2021/11/11 07:37:42;;;;;;;;;;;;;;;10.34;58.16;102346.51;117426;1185;21839;-62
2021/11/11 07:40:11;;;;;;;;;;;;;;;10.46;57.96;102348.70;117408;1185;21876;-60
2021/11/11 07:42:40;;;;;;;;;;;;;;;10.57;57.89;102344.86;117460;1185;21859;-62
2021/11/11 07:45:08;;;;;;;;;;;;;;;10.67;57.88;102342.96;117540;1179;23525;-61
2021/11/11 07:47:36;;;;;;;;;;;;;;;10.79;57.99;102334.91;117467;1183;23150;-62
2021/11/11 07:50:05;;;;;;;;;;;;;;;10.89;58.04;102329.83;117586;1185;21838;-61
2021/11/11 07:52:33;;;;;;;;;;;;;;;10.98;57.85;102325.77;117565;1186;21841;-60
2021/11/11 07:55:03;;;;;;;;;;;;;;;11.03;57.82;102321.45;117444;1185;21850;-60
2021/11/11 07:57:32;;;;;;;;;;;;;;;11.11;57.82;102316.30;117396;1182;22914;-59
2021/11/11 08:00:00;;;;;;;;;;;;;;;11.21;58.00;102313.13;117592;1183;22709;-62
2021/11/11 08:02:29;;;;;;;;;;;;;;;11.30;57.95;102310.98;117541;1183;23420;-62
2021/11/11 08:05:03;;;;;;;;;;;;;;;11.37;57.81;102307.23;117471;1185;24166;-62
2021/11/11 08:07:31;;;;;;;;;;;;;;;11.46;57.91;102303.69;117551;1181;23437;-59
2021/11/11 08:09:59;;;;;;;;;;;;;;;11.55;57.90;102303.29;117378;1182;21873;-63
2021/11/11 08:12:28;;;;;;;;;;;;;;;11.69;57.77;102306.98;117511;1185;24144;-62
2021/11/11 08:14:56;;;;;;;;;;;;;;;11.81;57.79;102305.56;117516;1183;23526;-61
2021/11/11 08:17:25;;;;;;;;;;;;;;;11.90;57.85;102305.52;117504;1176;21839;-63
2021/11/11 08:19:55;;;;;;;;;;;;;;;11.98;57.63;102296.65;117472;1188;23449;-64
2021/11/11 08:22:24;;;;;;;;;;;;;;;12.05;57.66;102296.76;117553;1182;23426;-63
2021/11/11 08:24:52;;;;;;;;;;;;;;;12.14;57.76;102294.23;117541;1183;21839;-62
2021/11/11 08:27:21;;;;;;;;;;;;;;;12.23;57.80;102294.34;117663;1183;22784;-63
2021/11/11 08:29:49;;;;;;;;;;;;;;;12.28;57.71;102296.34;117397;1182;24140;-64
2021/11/11 08:32:17;;;;;;;;;;;;;;;12.34;57.70;102296.56;117378;1185;21839;-59
2021/11/11 08:34:46;;;;;;;;;;;;;;;12.40;57.89;102293.81;117400;1182;23494;-59
2021/11/11 08:37:14;;;;;;;;;;;;;;;12.49;57.62;102292.34;117323;1185;23665;-63
2021/11/11 08:39:42;;;;;;;;;;;;;;;12.52;57.66;102291.66;117364;1182;21843;-64
2021/11/11 08:42:16;;;;;;;;;;;;;;;12.57;57.73;102295.05;117421;1182;23450;-60
2021/11/11 08:44:47;;;;;;;;;;;;;;;12.65;57.73;102292.66;117459;1183;21845;-63
2021/11/11 08:47:16;;;;;;;;;;;;;;;12.72;57.69;102290.61;117470;1182;23432;-62
2021/11/11 08:49:45;;;;;;;;;;;;;;;12.78;57.51;102286.80;117493;1185;21879;-62
2021/11/11 08:52:14;;;;;;;;;;;;;;;12.85;57.53;102284.03;117568;1182;21842;-65
2021/11/11 08:54:45;;;;;;;;;;;;;;;12.93;57.69;102281.98;117494;1182;24234;-65
2021/11/11 08:57:14;;;;;;;;;;;;;;;12.97;58.00;102277.98;117408;1183;23449;-64
2021/11/11 09:00:06;;;;;;;;;;;;;;;13.08;58.23;102272.05;117330;1183;22301;-62
2021/11/11 09:02:34;;;;;;;;;;;;;;;13.23;58.22;102265.30;117427;1186;21930;-63
2021/11/11 09:05:02;;;;;;;;;;;;;;;13.30;58.21;102259.16;117363;1183;21850;-64
2021/11/11 09:07:38;;;;;;;;;;;;;;;13.35;58.02;102257.09;117547;1182;23423;-64
2021/11/11 09:10:08;;;;;;;;;;;;;;;13.40;58.15;102252.73;117529;1184;23422;-65
2021/11/11 09:12:37;;;;;;;;;;;;;;;13.54;58.37;102255.10;117455;1183;21897;-64
2021/11/11 09:15:06;;;;;;;;;;;;;;;13.62;58.27;102252.52;117499;1183;23449;-62
2021/11/11 09:17:46;;;;;;;;;;;;;;;13.64;58.06;102247.05;117399;1186;23436;-62
2021/11/11 09:20:14;;;;;;;;;;;;;;;13.68;58.21;102247.77;117371;1185;21892;-65
2021/11/11 09:22:43;;;;;;;;;;;;;;;13.68;57.90;102248.30;117444;1182;22082;-64
2021/11/11 09:25:11;;;;;;;;;;;;;;;13.58;57.60;102250.91;117450;1186;23446;-62
2021/11/11 09:27:40;;;;;;;;;;;;;;;13.58;57.87;102256.02;117406;1176;22136;-64
2021/11/11 09:30:09;;;;;;;;;;;;;;;13.65;57.99;102252.88;117580;1182;22073;-62
2021/11/11 09:32:38;;;;;;;;;;;;;;;13.73;57.93;102247.44;117570;1185;21849;-62
2021/11/11 09:35:09;;;;;;;;;;;;;;;13.74;57.36;102241.98;117525;1185;23423;-64
2021/11/11 09:37:37;;;;;;;;;;;;;;;13.65;57.42;102237.89;117556;1182;21841;-64
2021/11/11 09:40:07;;;;;;;;;;;;;;;13.59;57.39;102233.09;117527;1184;22352;-63
2021/11/11 09:42:40;;;;;;;;;;;;;;;13.53;57.49;102229.52;117553;1185;22095;-63
2021/11/11 09:45:09;;;;;;;;;;;;;;;13.53;57.50;102228.48;117594;1186;21897;-64
2021/11/11 09:47:38;;;;;;;;;;;;;;;13.53;57.42;102221.41;117373;1185;24133;-63
2021/11/11 09:50:06;;;;;;;;;;;;;;;13.54;57.44;102223.37;117467;1183;23422;-64
2021/11/11 09:52:35;;;;;;;;;;;;;;;13.49;57.46;102217.34;117451;1185;23526;-65
2021/11/11 10:00:38;;;;;;;;;;;;;;;13.51;57.81;102204.30;117454;1186;23433;-61
2021/11/11 10:03:07;;;;;;;;;;;;;;;13.64;57.80;102197.31;117476;1185;21832;-61
2021/11/11 10:05:52;;;;;;;;;;;;;;;13.74;57.43;102193.98;117380;1185;23458;-65
2021/11/11 10:08:40;;;;;;;;;;;;;;;13.82;57.79;102194.90;117593;1182;22817;-65
2021/11/11 10:11:13;;;;;;;;;;;;;;;14.00;57.78;102189.31;117523;1184;21829;-62
2021/11/11 10:13:41;;;;;;;;;;;;;;;14.13;57.68;102183.15;117475;1182;21848;-62
2021/11/11 10:16:14;;;;;;;;;;;;;;;14.17;57.59;102183.86;117371;1184;24142;-61
2021/11/11 10:18:42;;;;;;;;;;;;;;;14.21;57.45;102180.69;117379;1182;23456;-61
2021/11/11 10:21:23;;;;;;;;;;;;;;;14.31;57.59;102179.64;117446;1182;24133;-61
2021/11/11 10:23:52;;;;;;;;;;;;;;;14.46;57.62;102177.17;117549;1186;22932;-64
2021/11/11 10:26:33;;;;;;;;;;;;;;;14.62;57.58;102178.05;117535;1182;21885;-62
2021/11/11 10:29:01;;;;;;;;;;;;;;;14.68;57.61;102172.07;117526;1185;23452;-62
2021/11/11 10:31:30;;;;;;;;;;;;;;;14.68;57.47;102175.59;117519;1185;23515;-61
2021/11/11 10:34:09;;;;;;;;;;;;;;;14.72;57.50;102171.55;117400;1185;21841;-62
2021/11/11 10:36:37;;;;;;;;;;;;;;;14.79;57.63;102161.65;117468;1183;22654;-62
2021/11/11 10:39:24;;;;;;;;;;;;;;;14.95;57.61;102150.66;117445;1185;23446;-62
2021/11/11 10:41:56;;;;;;;;;;;;;;;15.20;57.62;102151.48;117452;1185;23654;-62
2021/11/11 10:44:26;;;;;;;;;;;;;;;15.34;57.40;102152.31;117578;1184;22029;-61
2021/11/11 10:47:02;;;;;;;;;;;;;;;15.32;57.19;102146.13;117428;1183;23423;-62
2021/11/11 10:49:35;;;;;;;;;;;;;;;15.28;57.26;102139.06;117553;1183;21904;-62
2021/11/11 10:52:24;;;;;;;;;;;;;;;15.29;57.25;102135.52;117533;1186;23506;-65
2021/11/11 10:54:58;;;;;;;;;;;;;;;15.23;57.13;102132.02;117551;1185;23426;-63
2021/11/11 10:57:42;;;;;;;;;;;;;;;15.14;57.17;102125.69;117502;1183;21841;-62
2021/11/11 11:00:11;;;;;;;;;;;;;;;15.06;57.22;102121.10;117536;1185;21826;-62
2021/11/11 11:02:58;;;;;;;;;;;;;;;15.01;57.33;102119.35;117549;1184;23504;-64
2021/11/11 11:09:10;;;;;;;;;;;;;;;15.35;57.45;102102.96;117712;1176;23419;-62
2021/11/11 11:11:38;;;;;;;;;;;;;;;15.35;57.39;102100.48;117431;1185;21830;-62
2021/11/11 11:14:13;;;;;;;;;;;;;;;15.33;57.23;102097.30;117582;1182;22032;-62
2021/11/11 11:16:42;;;;;;;;;;;;;;;15.26;57.06;102092.73;117501;1186;23432;-62
2021/11/11 11:19:11;;;;;;;;;;;;;;;15.24;57.24;102086.04;117556;1182;23455;-61
2021/11/11 11:21:47;;;;;;;;;;;;;;;15.25;57.06;102082.31;117559;1183;23452;-63
2021/11/11 11:24:17;;;;;;;;;;;;;;;15.26;57.10;102078.42;117442;1184;22813;-65
2021/11/11 11:26:49;;;;;;;;;;;;;;;15.22;56.84;102075.09;117436;1185;23420;-66
2021/11/11 11:32:02;;;;;;;;;;;;;;;15.16;56.96;102064.85;117482;1186;23423;-65
2021/11/11 11:34:32;;;;;;;;;;;;;;;15.17;57.16;102066.98;117407;1182;22625;-65
2021/11/11 11:37:01;;;;;;;;;;;;;;;15.19;56.82;102066.97;117548;1185;21880;-64
2021/11/11 11:39:39;;;;;;;;;;;;;;;15.20;56.76;102069.63;117572;1184;22983;-62
2021/11/11 11:42:14;;;;;;;;;;;;;;;15.19;56.70;102066.96;117614;1182;22636;-61
2021/11/11 11:44:43;;;;;;;;;;;;;;;15.05;56.89;102071.61;117413;1182;23532;-62
2021/11/11 11:47:20;;;;;;;;;;;;;;;15.01;56.78;102062.61;117490;1185;22900;-62
2021/11/11 11:49:55;;;;;;;;;;;;;;;15.00;56.56;102068.46;117476;1185;21847;-65
2021/11/11 11:52:24;;;;;;;;;;;;;;;14.95;56.49;102061.41;117517;1183;22985;-65
2021/11/11 11:55:17;;;;;;;;;;;;;;;14.94;56.60;102053.98;117412;1186;21842;-61
2021/11/11 12:00:31;;;;;;;;;;;;;;;15.08;56.65;102043.85;117374;1185;21874;-62
2021/11/11 12:14:19;;;;;;;;;;;;;;;15.15;56.42;102032.85;117326;1184;21879;-64
2021/11/11 12:17:03;;;;;;;;;;;;;;;15.14;56.33;102030.73;117312;1176;21842;-61
2021/11/11 12:29:02;;;;;;;;;;;;;;;14.82;56.40;102024.34;117444;1184;23433;-65
2021/11/11 12:34:34;;;;;;;;;;;;;;;14.52;56.20;102025.29;117467;1179;22597;-61
2021/11/11 12:39:55;;;;;;;;;;;;;;;14.33;56.29;102012.45;117444;1185;21832;-61
2021/11/11 12:42:27;;;;;;;;;;;;;;;14.30;56.17;102013.50;117402;1185;21841;-61
2021/11/11 12:45:01;;;;;;;;;;;;;;;14.21;56.07;102015.45;117290;1182;23448;-61
2021/11/11 12:47:34;;;;;;;;;;;;;;;14.16;56.12;102015.79;117409;1185;24129;-65
2021/11/11 12:50:34;;;;;;;;;;;;;;;14.15;56.22;102013.86;117400;1182;23432;-61
2021/11/11 12:53:08;;;;;;;;;;;;;;;14.12;56.14;102009.46;117120;1186;21840;-65
2021/11/11 12:55:37;;;;;;;;;;;;;;;14.10;56.28;102008.57;117415;1185;22802;-61
2021/11/11 12:58:07;;;;;;;;;;;;;;;14.10;56.16;102012.29;117448;1185;22600;-64
2021/11/11 13:01:02;;;;;;;;;;;;;;;14.07;56.12;102011.75;117500;1182;22619;-60
2021/11/11 13:03:44;;;;;;;;;;;;;;;13.99;56.17;102010.52;117388;1186;24142;-61
2021/11/11 13:06:12;;;;;;;;;;;;;;;13.89;56.10;102009.83;117428;1185;21838;-63
2021/11/11 13:08:51;;;;;;;;;;;;;;;13.80;56.02;102003.46;117412;1185;22261;-64
2021/11/11 13:11:32;;;;;;;;;;;;;;;13.81;56.00;101998.34;117418;1182;22910;-61
2021/11/11 13:14:07;;;;;;;;;;;;;;;13.77;55.73;101991.47;117392;1182;23534;-60
2021/11/11 13:16:37;;;;;;;;;;;;;;;13.70;55.60;101987.05;117357;1185;24147;-61
2021/11/11 13:19:05;;;;;;;;;;;;;;;13.63;55.72;101984.23;117451;1184;21855;-63
2021/11/11 13:22:10;;;;;;;;;;;;;;;13.58;55.68;101985.29;117457;1185;21864;-63
2021/11/11 14:01:14;;;;;;;;;;;;;;;11.91;54.97;101915.20;117456;1185;23417;-61
2021/11/11 16:22:46;;;;;;;;;;;;;;;8.16;54.92;101839.46;117361;1186;24139;-61
2021/11/11 16:28:03;;;;;;;;;;;;;;;8.03;54.98;101830.80;117343;1186;23550;-60
2021/11/11 16:30:32;;;;;;;;;;;;;;;8.00;55.06;101826.34;117418;1186;21924;-60
2021/11/11 16:33:00;;;;;;;;;;;;;;;7.96;54.96;101824.86;117484;1179;22612;-60
2021/11/11 16:35:29;;;;;;;;;;;;;;;7.88;54.92;101824.70;117366;1182;23551;-57
2021/11/11 16:37:57;;;;;;;;;;;;;;;7.76;55.53;101817.44;117316;1186;23443;-58
2021/11/11 16:40:26;;;;;;;;;;;;;;;7.69;55.56;101811.88;117339;1186;21956;-57
2021/11/11 16:43:06;;;;;;;;;;;;;;;7.64;55.55;101810.17;117386;1180;23496;-57
2021/11/11 16:45:35;;;;;;;;;;;;;;;7.64;55.65;101809.30;117394;1185;23441;-57
2021/11/11 16:48:04;;;;;;;;;;;;;;;7.65;55.58;101803.91;117498;1184;23416;-60
2021/11/11 16:50:32;;;;;;;;;;;;;;;7.64;55.54;101801.62;117355;1186;23006;-60
2021/11/11 16:53:00;;;;;;;;;;;;;;;7.66;55.80;101804.48;117390;1186;24149;-57
2021/11/11 16:55:28;;;;;;;;;;;;;;;7.69;55.62;101803.33;117359;1186;22610;-57
2021/11/11 16:57:56;;;;;;;;;;;;;;;7.76;55.57;101801.88;117328;1185;21847;-61
2021/11/11 17:00:25;;;;;;;;;;;;;;;7.81;56.04;101800.27;117428;1182;21829;-59